Gunnison, CO

01:43 PM MST am 23. Februar 2017 (GMT -0700)
West Ruby Ave Weather | | Change Station

Höhe 7713 ft 38.55 °N, 106.93 °W | Updated 1 second ago

Scattered Clouds
Teils Wolkig
25.3 °F
gefühlte 15 °F
N
11.0
Wind Wechselnd Wind aus Südwest
Gusts 11.0 mph

Heute
Max. -- | schwach -- °F
--% Regenrisiko
Gestern
Max. -- | schwach -- °F
Precip. -- inch
Druck 29.62 inch
Sichtweite 9.0 Meilen
Wolken Teils Wolkig 5500 ft
Teils Wolkig 7000 ft
Windchill 15 °F
Taupunkt 3 °F
Feuchtigkeit 37%
Regen 0.00 inch
Schneehöhe Nicht verfügbar..
6:47 AM 5:54 PM
Letztes Viertel, 8% visible
SPECI KGUC 232018Z AUTO 31015G23KT 9SM SCT055 SCT070 M05/M12 A2962 RMK AO2 WSHFT 1953 SNB04E15 P0000 FZRANO
Druck 29.62 inch
Sichtweite 9.0 Meilen
Wolken Teils Wolkig 5500 ft
Teils Wolkig 7000 ft
Windchill 15 °F
Taupunkt 3 °F
Feuchtigkeit 37%
Regen 0.00 inch
Schneehöhe Nicht verfügbar..
6:47 AM 5:54 PM
Letztes Viertel, 8% visible
SPECI KGUC 232018Z AUTO 31015G23KT 9SM SCT055 SCT070 M05/M12 A2962 RMK AO2 WSHFT 1953 SNB04E15 P0000 FZRANO

Get Your Daily Forecast Email!

Thanks for signing up!

Be on the lookout for a verification email in your inbox.

You'll start receiving the daily forecast at 8 AM.

×

10-Day Weather Forecast

Almanac

Astronomie

Feb. 23, 2017 Aufgang Untergang
Genaue Zeit
Bürgerliche Dämmerung
Nautische Dämmerung
Astronomische Dämmerung
Mond
Länge des sichtbaren Lichts
Tageslänge
Tomorrow will be .
, % of the Moon is Illuminated

Heutige Rekorde

State Highs State Lows

Community

WunderPhotos

Upload Photos

1,962,540 Fotos hochgeladen!

WunderBlog® & News

Nearby

Luftqualität

  Luftqualität LQ Index Schadstoff
Not available.

Schneehöhe

Station Depth Höhe

Erdbebenaktivität

Stadt Distance Mag. Time & Date
Minimum magnitude displayed is 2.5.

küstennahe Wassertemperaturen

Ort Temperatur

Stations

Wetterstationen in der Umgebung

Stationsstandort Temp. Windchill Taupunkt Feuchtigkeit Wind Precip. Höhe Aktualisiert Art
                   

Watches & Warnings

There are currently no watches in effect.